sensor_id;sensor_type;location;lat;lon;timestamp;P1;durP1;ratioP1;P2;durP2;ratioP2
19257;SDS011;9763;48.780;9.212;2023-06-22T00:02:27;3.83;;;3.33;;
19257;SDS011;9763;48.780;9.212;2023-06-22T00:05:51;3.57;;;3.20;;
19257;SDS011;9763;48.780;9.212;2023-06-22T00:09:15;3.40;;;3.10;;
19257;SDS011;9763;48.780;9.212;2023-06-22T00:12:39;3.37;;;3.07;;
19257;SDS011;9763;48.780;9.212;2023-06-22T00:16:03;3.33;;;3.07;;
19257;SDS011;9763;48.780;9.212;2023-06-22T00:19:29;4.07;;;3.40;;
19257;SDS011;9763;48.780;9.212;2023-06-22T00:22:52;3.70;;;3.40;;
19257;SDS011;9763;48.780;9.212;2023-06-22T00:26:16;3.37;;;3.03;;
19257;SDS011;9763;48.780;9.212;2023-06-22T00:29:40;3.50;;;3.20;;
19257;SDS011;9763;48.780;9.212;2023-06-22T00:33:04;3.40;;;3.10;;
19257;SDS011;9763;48.780;9.212;2023-06-22T00:36:30;3.00;;;2.80;;
19257;SDS011;9763;48.780;9.212;2023-06-22T00:39:54;3.10;;;2.90;;
19257;SDS011;9763;48.780;9.212;2023-06-22T00:43:18;3.70;;;3.37;;
19257;SDS011;9763;48.780;9.212;2023-06-22T00:46:42;4.73;;;3.20;;
19257;SDS011;9763;48.780;9.212;2023-06-22T00:50:07;3.23;;;3.00;;
19257;SDS011;9763;48.780;9.212;2023-06-22T00:53:33;5.53;;;3.60;;
19257;SDS011;9763;48.780;9.212;2023-06-22T00:56:58;5.33;;;3.43;;
19257;SDS011;9763;48.780;9.212;2023-06-22T01:00:22;3.50;;;3.20;;
19257;SDS011;9763;48.780;9.212;2023-06-22T01:03:48;4.30;;;3.40;;
19257;SDS011;9763;48.780;9.212;2023-06-22T01:07:15;3.47;;;3.17;;
19257;SDS011;9763;48.780;9.212;2023-06-22T01:11:01;3.67;;;3.37;;
19257;SDS011;9763;48.780;9.212;2023-06-22T01:14:41;3.77;;;3.47;;
19257;SDS011;9763;48.780;9.212;2023-06-22T01:18:13;3.47;;;3.17;;
19257;SDS011;9763;48.780;9.212;2023-06-22T01:21:41;3.50;;;3.20;;
19257;SDS011;9763;48.780;9.212;2023-06-22T01:25:07;3.50;;;3.00;;
19257;SDS011;9763;48.780;9.212;2023-06-22T01:28:45;3.60;;;3.10;;
19257;SDS011;9763;48.780;9.212;2023-06-22T01:32:10;3.20;;;2.90;;
19257;SDS011;9763;48.780;9.212;2023-06-22T01:35:36;3.63;;;3.33;;
19257;SDS011;9763;48.780;9.212;2023-06-22T01:39:01;3.83;;;3.43;;
19257;SDS011;9763;48.780;9.212;2023-06-22T01:42:28;3.57;;;3.20;;
19257;SDS011;9763;48.780;9.212;2023-06-22T01:45:55;3.43;;;3.17;;
19257;SDS011;9763;48.780;9.212;2023-06-22T01:49:20;6.50;;;3.17;;
19257;SDS011;9763;48.780;9.212;2023-06-22T01:52:44;3.27;;;3.07;;
19257;SDS011;9763;48.780;9.212;2023-06-22T01:56:08;3.80;;;3.50;;
19257;SDS011;9763;48.780;9.212;2023-06-22T01:59:34;4.20;;;3.90;;
19257;SDS011;9763;48.780;9.212;2023-06-22T02:03:10;3.90;;;3.57;;
19257;SDS011;9763;48.780;9.212;2023-06-22T02:06:42;3.77;;;3.33;;
19257;SDS011;9763;48.780;9.212;2023-06-22T02:10:09;6.07;;;3.40;;
19257;SDS011;9763;48.780;9.212;2023-06-22T02:13:37;4.60;;;3.80;;
19257;SDS011;9763;48.780;9.212;2023-06-22T02:17:04;4.27;;;3.87;;
19257;SDS011;9763;48.780;9.212;2023-06-22T02:20:32;4.43;;;3.70;;
19257;SDS011;9763;48.780;9.212;2023-06-22T02:23:59;3.90;;;3.40;;
19257;SDS011;9763;48.780;9.212;2023-06-22T02:27:24;3.60;;;3.30;;
19257;SDS011;9763;48.780;9.212;2023-06-22T02:30:48;3.83;;;3.50;;
19257;SDS011;9763;48.780;9.212;2023-06-22T02:34:13;4.07;;;3.67;;
19257;SDS011;9763;48.780;9.212;2023-06-22T02:37:41;4.90;;;3.90;;
19257;SDS011;9763;48.780;9.212;2023-06-22T02:41:05;3.63;;;3.33;;
19257;SDS011;9763;48.780;9.212;2023-06-22T02:44:29;3.70;;;3.40;;
19257;SDS011;9763;48.780;9.212;2023-06-22T02:47:53;4.13;;;3.40;;
19257;SDS011;9763;48.780;9.212;2023-06-22T02:51:17;5.53;;;3.63;;
19257;SDS011;9763;48.780;9.212;2023-06-22T02:54:43;3.57;;;3.27;;
19257;SDS011;9763;48.780;9.212;2023-06-22T02:58:09;4.07;;;3.67;;
19257;SDS011;9763;48.780;9.212;2023-06-22T03:01:33;3.73;;;3.43;;
19257;SDS011;9763;48.780;9.212;2023-06-22T03:05:09;3.90;;;3.60;;
19257;SDS011;9763;48.780;9.212;2023-06-22T03:08:35;3.73;;;3.43;;
19257;SDS011;9763;48.780;9.212;2023-06-22T03:12:00;3.60;;;3.30;;
19257;SDS011;9763;48.780;9.212;2023-06-22T03:15:33;3.73;;;3.43;;
19257;SDS011;9763;48.780;9.212;2023-06-22T03:18:56;4.20;;;3.90;;
19257;SDS011;9763;48.780;9.212;2023-06-22T03:22:20;3.77;;;3.47;;
19257;SDS011;9763;48.780;9.212;2023-06-22T03:25:44;3.60;;;3.30;;
19257;SDS011;9763;48.780;9.212;2023-06-22T03:29:09;4.33;;;3.93;;
19257;SDS011;9763;48.780;9.212;2023-06-22T03:32:33;3.53;;;3.23;;
19257;SDS011;9763;48.780;9.212;2023-06-22T03:35:59;3.80;;;3.50;;
19257;SDS011;9763;48.780;9.212;2023-06-22T03:39:23;3.97;;;3.57;;
19257;SDS011;9763;48.780;9.212;2023-06-22T03:42:47;3.97;;;3.57;;
19257;SDS011;9763;48.780;9.212;2023-06-22T03:46:12;3.93;;;3.63;;
19257;SDS011;9763;48.780;9.212;2023-06-22T03:49:37;3.80;;;3.50;;
19257;SDS011;9763;48.780;9.212;2023-06-22T03:53:01;4.67;;;3.80;;
19257;SDS011;9763;48.780;9.212;2023-06-22T03:56:24;3.73;;;3.37;;
19257;SDS011;9763;48.780;9.212;2023-06-22T03:59:48;4.03;;;3.50;;
19257;SDS011;9763;48.780;9.212;2023-06-22T04:03:13;3.50;;;3.20;;
19257;SDS011;9763;48.780;9.212;2023-06-22T04:06:37;3.80;;;3.50;;
19257;SDS011;9763;48.780;9.212;2023-06-22T04:10:01;5.60;;;3.60;;
19257;SDS011;9763;48.780;9.212;2023-06-22T04:13:25;3.93;;;3.63;;
19257;SDS011;9763;48.780;9.212;2023-06-22T04:16:48;4.03;;;3.73;;
19257;SDS011;9763;48.780;9.212;2023-06-22T04:20:13;3.77;;;3.47;;
19257;SDS011;9763;48.780;9.212;2023-06-22T04:23:37;3.80;;;3.50;;
19257;SDS011;9763;48.780;9.212;2023-06-22T04:27:01;3.90;;;3.60;;
19257;SDS011;9763;48.780;9.212;2023-06-22T04:30:25;4.43;;;4.03;;
19257;SDS011;9763;48.780;9.212;2023-06-22T04:33:49;4.00;;;3.70;;
19257;SDS011;9763;48.780;9.212;2023-06-22T04:37:14;8.90;;;4.13;;
19257;SDS011;9763;48.780;9.212;2023-06-22T04:40:38;3.70;;;3.40;;
19257;SDS011;9763;48.780;9.212;2023-06-22T04:44:02;4.40;;;3.43;;
19257;SDS011;9763;48.780;9.212;2023-06-22T04:47:26;3.57;;;3.27;;
19257;SDS011;9763;48.780;9.212;2023-06-22T04:50:50;3.90;;;3.50;;
19257;SDS011;9763;48.780;9.212;2023-06-22T04:54:15;3.50;;;3.20;;
19257;SDS011;9763;48.780;9.212;2023-06-22T04:57:39;3.93;;;3.50;;
19257;SDS011;9763;48.780;9.212;2023-06-22T05:01:02;3.93;;;3.60;;
19257;SDS011;9763;48.780;9.212;2023-06-22T05:04:26;4.10;;;3.70;;
19257;SDS011;9763;48.780;9.212;2023-06-22T05:07:53;4.20;;;3.80;;
19257;SDS011;9763;48.780;9.212;2023-06-22T05:11:23;5.67;;;3.40;;
19257;SDS011;9763;48.780;9.212;2023-06-22T05:14:47;3.60;;;3.30;;
19257;SDS011;9763;48.780;9.212;2023-06-22T05:18:11;4.10;;;3.70;;
19257;SDS011;9763;48.780;9.212;2023-06-22T05:21:35;4.50;;;3.63;;
19257;SDS011;9763;48.780;9.212;2023-06-22T05:24:59;3.53;;;3.23;;
19257;SDS011;9763;48.780;9.212;2023-06-22T05:28:41;3.10;;;2.80;;
19257;SDS011;9763;48.780;9.212;2023-06-22T05:32:07;4.50;;;3.53;;
19257;SDS011;9763;48.780;9.212;2023-06-22T05:35:31;3.60;;;3.30;;
19257;SDS011;9763;48.780;9.212;2023-06-22T05:38:56;3.50;;;3.20;;
19257;SDS011;9763;48.780;9.212;2023-06-22T05:42:20;4.53;;;2.87;;
19257;SDS011;9763;48.780;9.212;2023-06-22T05:45:45;3.43;;;2.97;;
19257;SDS011;9763;48.780;9.212;2023-06-22T05:49:09;3.20;;;2.90;;
19257;SDS011;9763;48.780;9.212;2023-06-22T05:52:32;2.93;;;2.73;;
19257;SDS011;9763;48.780;9.212;2023-06-22T05:55:56;2.83;;;2.63;;
19257;SDS011;9763;48.780;9.212;2023-06-22T05:59:20;3.17;;;2.87;;
19257;SDS011;9763;48.780;9.212;2023-06-22T06:02:45;3.33;;;2.90;;
19257;SDS011;9763;48.780;9.212;2023-06-22T06:06:08;3.53;;;2.97;;
19257;SDS011;9763;48.780;9.212;2023-06-22T06:09:33;3.50;;;2.80;;
19257;SDS011;9763;48.780;9.212;2023-06-22T06:12:56;3.20;;;2.70;;
19257;SDS011;9763;48.780;9.212;2023-06-22T06:16:21;3.20;;;2.63;;
19257;SDS011;9763;48.780;9.212;2023-06-22T06:19:46;2.90;;;2.50;;
19257;SDS011;9763;48.780;9.212;2023-06-22T06:23:10;2.90;;;2.70;;
19257;SDS011;9763;48.780;9.212;2023-06-22T06:26:33;3.17;;;2.87;;
19257;SDS011;9763;48.780;9.212;2023-06-22T06:29:57;2.80;;;2.50;;
19257;SDS011;9763;48.780;9.212;2023-06-22T06:33:21;4.30;;;2.70;;
19257;SDS011;9763;48.780;9.212;2023-06-22T06:36:48;2.70;;;2.50;;
19257;SDS011;9763;48.780;9.212;2023-06-22T06:40:12;3.10;;;2.80;;
19257;SDS011;9763;48.780;9.212;2023-06-22T06:43:37;2.37;;;2.07;;
19257;SDS011;9763;48.780;9.212;2023-06-22T06:47:01;3.27;;;2.60;;
19257;SDS011;9763;48.780;9.212;2023-06-22T06:50:25;6.13;;;2.90;;
19257;SDS011;9763;48.780;9.212;2023-06-22T06:53:50;2.53;;;2.33;;
19257;SDS011;9763;48.780;9.212;2023-06-22T06:57:14;2.37;;;2.17;;
19257;SDS011;9763;48.780;9.212;2023-06-22T07:00:37;2.53;;;2.33;;
19257;SDS011;9763;48.780;9.212;2023-06-22T07:04:01;3.07;;;2.20;;
19257;SDS011;9763;48.780;9.212;2023-06-22T07:07:25;3.03;;;2.30;;
19257;SDS011;9763;48.780;9.212;2023-06-22T07:10:50;2.90;;;2.07;;
19257;SDS011;9763;48.780;9.212;2023-06-22T07:14:15;3.17;;;1.77;;
19257;SDS011;9763;48.780;9.212;2023-06-22T07:17:39;2.93;;;2.40;;
19257;SDS011;9763;48.780;9.212;2023-06-22T07:21:03;2.20;;;2.00;;
19257;SDS011;9763;48.780;9.212;2023-06-22T07:24:28;2.50;;;2.30;;
19257;SDS011;9763;48.780;9.212;2023-06-22T07:28:00;2.70;;;2.40;;
19257;SDS011;9763;48.780;9.212;2023-06-22T07:31:26;2.70;;;2.40;;
19257;SDS011;9763;48.780;9.212;2023-06-22T07:34:50;2.70;;;2.33;;
19257;SDS011;9763;48.780;9.212;2023-06-22T07:38:14;2.60;;;2.40;;
19257;SDS011;9763;48.780;9.212;2023-06-22T07:41:38;4.53;;;2.30;;
19257;SDS011;9763;48.780;9.212;2023-06-22T07:45:05;3.93;;;2.47;;
19257;SDS011;9763;48.780;9.212;2023-06-22T07:48:30;4.50;;;2.10;;
19257;SDS011;9763;48.780;9.212;2023-06-22T07:51:54;2.87;;;2.30;;
19257;SDS011;9763;48.780;9.212;2023-06-22T07:55:18;3.30;;;2.17;;
19257;SDS011;9763;48.780;9.212;2023-06-22T07:58:42;2.53;;;2.07;;
19257;SDS011;9763;48.780;9.212;2023-06-22T08:02:07;2.10;;;1.80;;
19257;SDS011;9763;48.780;9.212;2023-06-22T08:05:31;2.93;;;2.20;;
19257;SDS011;9763;48.780;9.212;2023-06-22T08:08:54;3.40;;;2.30;;
19257;SDS011;9763;48.780;9.212;2023-06-22T08:12:18;2.80;;;2.47;;
19257;SDS011;9763;48.780;9.212;2023-06-22T08:15:43;3.03;;;1.90;;
19257;SDS011;9763;48.780;9.212;2023-06-22T08:19:11;3.17;;;2.50;;
19257;SDS011;9763;48.780;9.212;2023-06-22T08:22:35;2.63;;;2.03;;
19257;SDS011;9763;48.780;9.212;2023-06-22T08:25:59;3.07;;;2.40;;
19257;SDS011;9763;48.780;9.212;2023-06-22T08:29:22;2.80;;;2.10;;
19257;SDS011;9763;48.780;9.212;2023-06-22T08:32:46;3.50;;;2.10;;
19257;SDS011;9763;48.780;9.212;2023-06-22T08:36:11;4.63;;;2.77;;
19257;SDS011;9763;48.780;9.212;2023-06-22T08:39:35;2.30;;;2.10;;
19257;SDS011;9763;48.780;9.212;2023-06-22T08:43:01;2.93;;;2.10;;
19257;SDS011;9763;48.780;9.212;2023-06-22T08:46:24;2.10;;;1.83;;
19257;SDS011;9763;48.780;9.212;2023-06-22T08:49:52;2.53;;;2.17;;
19257;SDS011;9763;48.780;9.212;2023-06-22T08:53:17;2.67;;;2.30;;
19257;SDS011;9763;48.780;9.212;2023-06-22T08:56:41;2.50;;;2.30;;
19257;SDS011;9763;48.780;9.212;2023-06-22T09:00:06;5.40;;;2.33;;
19257;SDS011;9763;48.780;9.212;2023-06-22T09:03:39;3.80;;;2.03;;
19257;SDS011;9763;48.780;9.212;2023-06-22T09:07:03;4.13;;;2.03;;
19257;SDS011;9763;48.780;9.212;2023-06-22T09:10:29;4.93;;;2.63;;
19257;SDS011;9763;48.780;9.212;2023-06-22T09:13:53;3.27;;;2.33;;
19257;SDS011;9763;48.780;9.212;2023-06-22T09:17:17;3.23;;;2.60;;
19257;SDS011;9763;48.780;9.212;2023-06-22T09:20:41;3.03;;;2.03;;
19257;SDS011;9763;48.780;9.212;2023-06-22T09:24:05;3.10;;;2.43;;
19257;SDS011;9763;48.780;9.212;2023-06-22T09:27:31;4.43;;;2.63;;
19257;SDS011;9763;48.780;9.212;2023-06-22T09:30:55;3.27;;;2.50;;
19257;SDS011;9763;48.780;9.212;2023-06-22T09:34:19;3.23;;;2.30;;
19257;SDS011;9763;48.780;9.212;2023-06-22T09:37:43;4.73;;;2.60;;
19257;SDS011;9763;48.780;9.212;2023-06-22T09:41:07;2.77;;;2.20;;
19257;SDS011;9763;48.780;9.212;2023-06-22T09:44:33;3.13;;;2.33;;
19257;SDS011;9763;48.780;9.212;2023-06-22T09:47:56;3.30;;;2.50;;
19257;SDS011;9763;48.780;9.212;2023-06-22T09:51:21;2.63;;;2.30;;
19257;SDS011;9763;48.780;9.212;2023-06-22T09:54:45;3.27;;;2.37;;
19257;SDS011;9763;48.780;9.212;2023-06-22T09:58:09;4.47;;;2.47;;
19257;SDS011;9763;48.780;9.212;2023-06-22T10:01:34;2.30;;;2.10;;
19257;SDS011;9763;48.780;9.212;2023-06-22T10:04:58;4.30;;;2.60;;
19257;SDS011;9763;48.780;9.212;2023-06-22T10:08:22;5.60;;;2.27;;
19257;SDS011;9763;48.780;9.212;2023-06-22T10:11:45;4.97;;;2.50;;
19257;SDS011;9763;48.780;9.212;2023-06-22T10:15:10;5.00;;;2.43;;
19257;SDS011;9763;48.780;9.212;2023-06-22T10:18:36;3.87;;;2.90;;
19257;SDS011;9763;48.780;9.212;2023-06-22T10:21:59;7.63;;;2.90;;
19257;SDS011;9763;48.780;9.212;2023-06-22T10:25:23;3.87;;;2.60;;
19257;SDS011;9763;48.780;9.212;2023-06-22T10:28:48;2.97;;;2.70;;
19257;SDS011;9763;48.780;9.212;2023-06-22T10:32:21;2.47;;;2.27;;
19257;SDS011;9763;48.780;9.212;2023-06-22T10:35:46;3.00;;;2.53;;
19257;SDS011;9763;48.780;9.212;2023-06-22T10:39:09;4.00;;;2.70;;
19257;SDS011;9763;48.780;9.212;2023-06-22T10:42:33;8.00;;;2.40;;
19257;SDS011;9763;48.780;9.212;2023-06-22T10:45:57;3.53;;;2.40;;
19257;SDS011;9763;48.780;9.212;2023-06-22T10:49:20;3.30;;;2.70;;
19257;SDS011;9763;48.780;9.212;2023-06-22T10:52:45;4.17;;;2.60;;
19257;SDS011;9763;48.780;9.212;2023-06-22T10:56:09;3.63;;;2.60;;
19257;SDS011;9763;48.780;9.212;2023-06-22T10:59:33;3.10;;;2.70;;
19257;SDS011;9763;48.780;9.212;2023-06-22T11:02:57;2.90;;;2.47;;
19257;SDS011;9763;48.780;9.212;2023-06-22T11:06:21;3.80;;;3.00;;
19257;SDS011;9763;48.780;9.212;2023-06-22T11:09:46;9.50;;;2.50;;
19257;SDS011;9763;48.780;9.212;2023-06-22T11:13:09;3.00;;;2.50;;
19257;SDS011;9763;48.780;9.212;2023-06-22T11:16:33;4.00;;;2.63;;
19257;SDS011;9763;48.780;9.212;2023-06-22T11:19:57;3.20;;;2.47;;
19257;SDS011;9763;48.780;9.212;2023-06-22T11:23:22;2.50;;;2.30;;
19257;SDS011;9763;48.780;9.212;2023-06-22T11:26:50;3.27;;;2.40;;
19257;SDS011;9763;48.780;9.212;2023-06-22T11:30:14;3.40;;;2.60;;
19257;SDS011;9763;48.780;9.212;2023-06-22T11:33:38;5.00;;;2.60;;
19257;SDS011;9763;48.780;9.212;2023-06-22T11:37:01;6.47;;;2.60;;
19257;SDS011;9763;48.780;9.212;2023-06-22T11:40:25;3.53;;;2.60;;
19257;SDS011;9763;48.780;9.212;2023-06-22T11:43:50;3.50;;;2.83;;
19257;SDS011;9763;48.780;9.212;2023-06-22T11:47:14;3.67;;;2.43;;
19257;SDS011;9763;48.780;9.212;2023-06-22T11:50:37;4.10;;;2.30;;
19257;SDS011;9763;48.780;9.212;2023-06-22T11:54:01;3.17;;;2.47;;
19257;SDS011;9763;48.780;9.212;2023-06-22T11:57:25;4.17;;;2.50;;
19257;SDS011;9763;48.780;9.212;2023-06-22T12:00:50;3.87;;;2.70;;
19257;SDS011;9763;48.780;9.212;2023-06-22T12:04:15;12.70;;;2.73;;
19257;SDS011;9763;48.780;9.212;2023-06-22T12:07:38;4.67;;;2.60;;
19257;SDS011;9763;48.780;9.212;2023-06-22T12:11:02;3.00;;;2.23;;
19257;SDS011;9763;48.780;9.212;2023-06-22T12:14:26;6.07;;;2.40;;
19257;SDS011;9763;48.780;9.212;2023-06-22T12:17:53;3.27;;;2.60;;
19257;SDS011;9763;48.780;9.212;2023-06-22T12:21:16;2.73;;;2.43;;
19257;SDS011;9763;48.780;9.212;2023-06-22T12:24:40;2.80;;;2.60;;
19257;SDS011;9763;48.780;9.212;2023-06-22T12:28:04;5.00;;;2.50;;
19257;SDS011;9763;48.780;9.212;2023-06-22T12:31:27;4.07;;;2.80;;
19257;SDS011;9763;48.780;9.212;2023-06-22T12:34:52;4.40;;;2.53;;
19257;SDS011;9763;48.780;9.212;2023-06-22T12:38:16;4.27;;;2.87;;
19257;SDS011;9763;48.780;9.212;2023-06-22T12:41:39;3.10;;;2.37;;
19257;SDS011;9763;48.780;9.212;2023-06-22T12:45:04;3.80;;;2.77;;
19257;SDS011;9763;48.780;9.212;2023-06-22T12:48:28;3.10;;;2.60;;
19257;SDS011;9763;48.780;9.212;2023-06-22T12:51:53;3.93;;;2.70;;
19257;SDS011;9763;48.780;9.212;2023-06-22T12:55:17;4.33;;;3.13;;
19257;SDS011;9763;48.780;9.212;2023-06-22T12:58:41;2.93;;;2.67;;
19257;SDS011;9763;48.780;9.212;2023-06-22T13:02:04;3.00;;;2.70;;
19257;SDS011;9763;48.780;9.212;2023-06-22T13:05:28;3.93;;;2.57;;
19257;SDS011;9763;48.780;9.212;2023-06-22T13:08:54;5.10;;;2.73;;
19257;SDS011;9763;48.780;9.212;2023-06-22T13:12:37;4.00;;;3.00;;
19257;SDS011;9763;48.780;9.212;2023-06-22T13:16:01;4.63;;;2.70;;
19257;SDS011;9763;48.780;9.212;2023-06-22T13:19:25;5.40;;;2.70;;
19257;SDS011;9763;48.780;9.212;2023-06-22T13:22:50;4.40;;;2.90;;
19257;SDS011;9763;48.780;9.212;2023-06-22T13:26:16;3.70;;;2.53;;
19257;SDS011;9763;48.780;9.212;2023-06-22T13:29:40;9.00;;;2.93;;
19257;SDS011;9763;48.780;9.212;2023-06-22T13:33:21;5.07;;;3.10;;
19257;SDS011;9763;48.780;9.212;2023-06-22T13:36:45;4.50;;;2.83;;
19257;SDS011;9763;48.780;9.212;2023-06-22T13:40:09;3.53;;;2.40;;
19257;SDS011;9763;48.780;9.212;2023-06-22T13:43:52;3.27;;;2.43;;
19257;SDS011;9763;48.780;9.212;2023-06-22T13:47:33;4.30;;;2.70;;
19257;SDS011;9763;48.780;9.212;2023-06-22T13:50:57;3.40;;;2.27;;
19257;SDS011;9763;48.780;9.212;2023-06-22T13:54:20;4.60;;;3.00;;
19257;SDS011;9763;48.780;9.212;2023-06-22T13:57:51;3.60;;;2.67;;
19257;SDS011;9763;48.780;9.212;2023-06-22T14:01:16;3.30;;;2.40;;
19257;SDS011;9763;48.780;9.212;2023-06-22T14:04:40;3.37;;;2.40;;
19257;SDS011;9763;48.780;9.212;2023-06-22T14:08:04;3.73;;;2.40;;
19257;SDS011;9763;48.780;9.212;2023-06-22T14:11:47;4.30;;;2.60;;
19257;SDS011;9763;48.780;9.212;2023-06-22T14:15:10;3.40;;;2.37;;
19257;SDS011;9763;48.780;9.212;2023-06-22T14:18:35;3.10;;;2.40;;
19257;SDS011;9763;48.780;9.212;2023-06-22T14:21:59;4.50;;;2.90;;
19257;SDS011;9763;48.780;9.212;2023-06-22T14:25:23;6.03;;;2.83;;
19257;SDS011;9763;48.780;9.212;2023-06-22T14:28:47;5.33;;;2.90;;
19257;SDS011;9763;48.780;9.212;2023-06-22T14:32:12;4.30;;;2.70;;
19257;SDS011;9763;48.780;9.212;2023-06-22T14:35:37;5.57;;;2.43;;
19257;SDS011;9763;48.780;9.212;2023-06-22T14:39:01;3.80;;;2.63;;
19257;SDS011;9763;48.780;9.212;2023-06-22T14:42:25;4.07;;;2.70;;
19257;SDS011;9763;48.780;9.212;2023-06-22T14:45:50;4.27;;;2.77;;
19257;SDS011;9763;48.780;9.212;2023-06-22T14:49:15;4.00;;;2.90;;
19257;SDS011;9763;48.780;9.212;2023-06-22T14:52:40;5.70;;;3.00;;
19257;SDS011;9763;48.780;9.212;2023-06-22T14:56:04;5.50;;;2.80;;
19257;SDS011;9763;48.780;9.212;2023-06-22T14:59:29;6.40;;;2.83;;
19257;SDS011;9763;48.780;9.212;2023-06-22T15:02:53;4.93;;;2.93;;
19257;SDS011;9763;48.780;9.212;2023-06-22T15:06:17;5.80;;;2.23;;
19257;SDS011;9763;48.780;9.212;2023-06-22T15:09:42;5.97;;;2.27;;
19257;SDS011;9763;48.780;9.212;2023-06-22T15:13:07;5.73;;;2.43;;
19257;SDS011;9763;48.780;9.212;2023-06-22T15:16:31;8.47;;;2.30;;
19257;SDS011;9763;48.780;9.212;2023-06-22T15:19:55;6.07;;;2.10;;
19257;SDS011;9763;48.780;9.212;2023-06-22T15:23:21;4.27;;;2.10;;
19257;SDS011;9763;48.780;9.212;2023-06-22T15:26:46;4.33;;;1.93;;
19257;SDS011;9763;48.780;9.212;2023-06-22T15:30:10;8.30;;;2.40;;
19257;SDS011;9763;48.780;9.212;2023-06-22T15:33:34;4.20;;;2.30;;
19257;SDS011;9763;48.780;9.212;2023-06-22T15:36:58;4.83;;;2.43;;
19257;SDS011;9763;48.780;9.212;2023-06-22T15:40:22;9.23;;;4.00;;
19257;SDS011;9763;48.780;9.212;2023-06-22T15:43:48;4.83;;;2.43;;
19257;SDS011;9763;48.780;9.212;2023-06-22T15:47:11;5.53;;;2.40;;
19257;SDS011;9763;48.780;9.212;2023-06-22T15:50:36;4.73;;;2.03;;
19257;SDS011;9763;48.780;9.212;2023-06-22T15:54:00;4.87;;;2.10;;
19257;SDS011;9763;48.780;9.212;2023-06-22T15:57:24;2.93;;;2.10;;
19257;SDS011;9763;48.780;9.212;2023-06-22T16:00:50;4.17;;;2.27;;
19257;SDS011;9763;48.780;9.212;2023-06-22T16:04:14;6.47;;;2.10;;
19257;SDS011;9763;48.780;9.212;2023-06-22T16:07:38;3.53;;;2.07;;
19257;SDS011;9763;48.780;9.212;2023-06-22T16:11:02;2.97;;;2.00;;
19257;SDS011;9763;48.780;9.212;2023-06-22T16:14:26;4.13;;;1.80;;
19257;SDS011;9763;48.780;9.212;2023-06-22T16:17:50;4.50;;;2.40;;
19257;SDS011;9763;48.780;9.212;2023-06-22T16:21:14;3.47;;;2.10;;
19257;SDS011;9763;48.780;9.212;2023-06-22T16:24:38;5.73;;;2.10;;
19257;SDS011;9763;48.780;9.212;2023-06-22T16:28:01;4.70;;;2.47;;
19257;SDS011;9763;48.780;9.212;2023-06-22T16:31:25;3.40;;;2.00;;
19257;SDS011;9763;48.780;9.212;2023-06-22T16:34:50;3.80;;;2.40;;
19257;SDS011;9763;48.780;9.212;2023-06-22T16:38:14;4.00;;;2.03;;
19257;SDS011;9763;48.780;9.212;2023-06-22T16:41:38;4.30;;;2.20;;
19257;SDS011;9763;48.780;9.212;2023-06-22T16:45:01;4.53;;;2.20;;
19257;SDS011;9763;48.780;9.212;2023-06-22T16:48:26;3.50;;;1.97;;
19257;SDS011;9763;48.780;9.212;2023-06-22T16:51:51;4.13;;;2.00;;
19257;SDS011;9763;48.780;9.212;2023-06-22T16:55:14;3.83;;;2.37;;
19257;SDS011;9763;48.780;9.212;2023-06-22T16:58:38;3.53;;;2.03;;
19257;SDS011;9763;48.780;9.212;2023-06-22T17:02:08;4.07;;;2.00;;
19257;SDS011;9763;48.780;9.212;2023-06-22T17:05:40;6.33;;;2.27;;
19257;SDS011;9763;48.780;9.212;2023-06-22T17:09:06;5.50;;;2.20;;
19257;SDS011;9763;48.780;9.212;2023-06-22T17:12:35;2.67;;;1.87;;
19257;SDS011;9763;48.780;9.212;2023-06-22T17:16:01;4.40;;;2.47;;
19257;SDS011;9763;48.780;9.212;2023-06-22T17:19:25;4.90;;;1.80;;
19257;SDS011;9763;48.780;9.212;2023-06-22T17:22:50;4.10;;;2.10;;
19257;SDS011;9763;48.780;9.212;2023-06-22T17:26:15;5.60;;;2.20;;
19257;SDS011;9763;48.780;9.212;2023-06-22T17:29:39;4.10;;;2.00;;
19257;SDS011;9763;48.780;9.212;2023-06-22T17:33:02;4.27;;;1.90;;
19257;SDS011;9763;48.780;9.212;2023-06-22T17:36:31;5.37;;;2.07;;
19257;SDS011;9763;48.780;9.212;2023-06-22T17:39:55;5.40;;;2.53;;
19257;SDS011;9763;48.780;9.212;2023-06-22T17:43:20;2.93;;;1.80;;
19257;SDS011;9763;48.780;9.212;2023-06-22T17:46:44;3.53;;;1.93;;
19257;SDS011;9763;48.780;9.212;2023-06-22T17:50:08;4.67;;;2.43;;
19257;SDS011;9763;48.780;9.212;2023-06-22T17:53:33;3.37;;;1.83;;
19257;SDS011;9763;48.780;9.212;2023-06-22T17:56:56;4.87;;;1.80;;
19257;SDS011;9763;48.780;9.212;2023-06-22T18:00:21;3.03;;;1.90;;
19257;SDS011;9763;48.780;9.212;2023-06-22T18:03:46;2.73;;;2.00;;
19257;SDS011;9763;48.780;9.212;2023-06-22T18:07:11;4.20;;;1.80;;
19257;SDS011;9763;48.780;9.212;2023-06-22T18:10:35;3.90;;;2.20;;
19257;SDS011;9763;48.780;9.212;2023-06-22T18:14:02;5.07;;;2.20;;
19257;SDS011;9763;48.780;9.212;2023-06-22T18:17:28;3.30;;;2.07;;
19257;SDS011;9763;48.780;9.212;2023-06-22T18:20:52;2.90;;;1.63;;
19257;SDS011;9763;48.780;9.212;2023-06-22T18:24:18;2.60;;;1.80;;
19257;SDS011;9763;48.780;9.212;2023-06-22T18:27:43;3.03;;;1.63;;
19257;SDS011;9763;48.780;9.212;2023-06-22T18:31:09;2.17;;;1.40;;
19257;SDS011;9763;48.780;9.212;2023-06-22T18:34:34;2.60;;;1.60;;
19257;SDS011;9763;48.780;9.212;2023-06-22T18:37:59;4.00;;;1.90;;
19257;SDS011;9763;48.780;9.212;2023-06-22T18:41:24;4.67;;;2.03;;
19257;SDS011;9763;48.780;9.212;2023-06-22T18:44:57;3.13;;;1.77;;
19257;SDS011;9763;48.780;9.212;2023-06-22T18:48:24;3.20;;;1.90;;
19257;SDS011;9763;48.780;9.212;2023-06-22T18:51:52;3.00;;;1.87;;
19257;SDS011;9763;48.780;9.212;2023-06-22T18:55:17;2.17;;;1.43;;
19257;SDS011;9763;48.780;9.212;2023-06-22T18:58:41;2.73;;;1.50;;
19257;SDS011;9763;48.780;9.212;2023-06-22T19:02:05;5.03;;;2.00;;
19257;SDS011;9763;48.780;9.212;2023-06-22T19:05:38;4.43;;;1.50;;
19257;SDS011;9763;48.780;9.212;2023-06-22T19:09:13;2.37;;;1.60;;
19257;SDS011;9763;48.780;9.212;2023-06-22T19:12:40;3.27;;;1.77;;
19257;SDS011;9763;48.780;9.212;2023-06-22T19:16:05;2.93;;;1.70;;
19257;SDS011;9763;48.780;9.212;2023-06-22T19:19:33;2.93;;;1.47;;
19257;SDS011;9763;48.780;9.212;2023-06-22T19:22:59;5.23;;;2.20;;
19257;SDS011;9763;48.780;9.212;2023-06-22T19:26:24;3.90;;;1.80;;
19257;SDS011;9763;48.780;9.212;2023-06-22T19:29:50;2.07;;;1.80;;
19257;SDS011;9763;48.780;9.212;2023-06-22T19:33:16;3.87;;;1.80;;
19257;SDS011;9763;48.780;9.212;2023-06-22T19:36:40;1.90;;;1.30;;
19257;SDS011;9763;48.780;9.212;2023-06-22T19:40:04;2.53;;;1.60;;
19257;SDS011;9763;48.780;9.212;2023-06-22T19:43:32;3.07;;;1.60;;
19257;SDS011;9763;48.780;9.212;2023-06-22T19:46:57;3.63;;;1.40;;
19257;SDS011;9763;48.780;9.212;2023-06-22T19:50:21;3.73;;;1.90;;
19257;SDS011;9763;48.780;9.212;2023-06-22T19:53:47;3.20;;;1.90;;
19257;SDS011;9763;48.780;9.212;2023-06-22T19:57:10;2.17;;;1.63;;
19257;SDS011;9763;48.780;9.212;2023-06-22T20:00:36;9.80;;;2.10;;
19257;SDS011;9763;48.780;9.212;2023-06-22T20:04:02;3.13;;;2.27;;
19257;SDS011;9763;48.780;9.212;2023-06-22T20:07:33;3.23;;;2.13;;
19257;SDS011;9763;48.780;9.212;2023-06-22T20:10:58;3.43;;;1.90;;
19257;SDS011;9763;48.780;9.212;2023-06-22T20:14:22;2.00;;;1.67;;
19257;SDS011;9763;48.780;9.212;2023-06-22T20:17:53;3.40;;;2.20;;
19257;SDS011;9763;48.780;9.212;2023-06-22T20:21:18;4.60;;;1.97;;
19257;SDS011;9763;48.780;9.212;2023-06-22T20:24:42;4.00;;;1.90;;
19257;SDS011;9763;48.780;9.212;2023-06-22T20:28:09;7.70;;;2.40;;
19257;SDS011;9763;48.780;9.212;2023-06-22T20:31:34;5.70;;;2.57;;
19257;SDS011;9763;48.780;9.212;2023-06-22T20:35:01;3.20;;;2.20;;
19257;SDS011;9763;48.780;9.212;2023-06-22T20:38:26;2.87;;;2.20;;
19257;SDS011;9763;48.780;9.212;2023-06-22T20:41:53;3.77;;;2.30;;
19257;SDS011;9763;48.780;9.212;2023-06-22T20:45:17;3.33;;;2.50;;
19257;SDS011;9763;48.780;9.212;2023-06-22T20:48:40;3.03;;;2.17;;
19257;SDS011;9763;48.780;9.212;2023-06-22T20:52:05;3.30;;;2.77;;
19257;SDS011;9763;48.780;9.212;2023-06-22T20:55:30;5.03;;;2.20;;